createdAt,value
2023-02-01T00:00:29.493Z,98947.31
2023-02-01T00:02:56.111Z,98935.00
2023-02-01T00:05:22.745Z,98935.34
2023-02-01T00:07:50.126Z,98947.91
2023-02-01T00:10:17.360Z,98942.72
2023-02-01T00:12:44.369Z,98952.84
2023-02-01T00:15:11.469Z,98955.03
2023-02-01T00:17:38.251Z,98952.38
2023-02-01T00:20:05.406Z,98955.31
2023-02-01T00:22:32.007Z,98952.31
2023-02-01T00:24:58.687Z,98951.81
2023-02-01T00:27:25.235Z,98948.19
2023-02-01T00:29:51.835Z,98943.72
2023-02-01T00:32:18.467Z,98951.81
2023-02-01T00:34:45.106Z,98952.31
2023-02-01T00:37:11.771Z,98953.16
2023-02-01T00:39:38.386Z,98954.00
2023-02-01T00:42:05.036Z,98956.19
2023-02-01T00:44:34.543Z,98949.78
2023-02-01T00:47:01.956Z,98954.22
2023-02-01T00:49:29.511Z,98959.56
2023-02-01T00:51:56.497Z,98960.16
2023-02-01T00:54:23.898Z,98942.50
2023-02-01T00:56:50.969Z,98950.97
2023-02-01T00:59:19.141Z,98951.81
2023-02-01T01:01:45.820Z,98953.16
2023-02-01T01:04:12.657Z,98946.16
2023-02-01T01:06:39.326Z,98943.22
2023-02-01T01:09:08.085Z,98949.38
2023-02-01T01:11:37.587Z,98953.72
2023-02-01T01:14:07.555Z,98951.91
2023-02-01T01:16:35.799Z,98947.56
2023-02-01T01:19:03.660Z,98949.16
2023-02-01T01:21:30.968Z,98941.41
2023-02-01T01:23:58.105Z,98941.53
2023-02-01T01:26:27.796Z,98939.09
2023-02-01T01:28:56.825Z,98951.19
2023-02-01T01:31:23.784Z,98951.94
2023-02-01T01:33:56.219Z,98942.75
2023-02-01T01:36:23.738Z,98945.88
2023-02-01T01:38:50.912Z,98945.75
2023-02-01T01:41:22.203Z,98946.50
2023-02-01T01:43:52.250Z,98940.94
2023-02-01T01:46:22.889Z,98935.72
2023-02-01T01:49:03.942Z,98938.16
2023-02-01T01:51:36.648Z,98934.75
2023-02-01T01:54:10.697Z,98938.16
2023-02-01T01:56:37.342Z,98935.38
2023-02-01T01:59:06.454Z,98926.91
2023-02-01T02:01:33.109Z,98932.09
2023-02-01T02:04:00.665Z,98932.22
2023-02-01T02:06:45.020Z,98928.84
2023-02-01T02:09:12.552Z,98931.50
2023-02-01T02:11:39.155Z,98928.59
2023-02-01T02:14:09.470Z,98920.50
2023-02-01T02:16:36.049Z,98927.63
2023-02-01T02:19:21.396Z,98914.09
2023-02-01T02:22:15.705Z,98913.84
2023-02-01T02:25:16.712Z,98919.03
2023-02-01T02:28:20.468Z,98925.09
2023-02-01T02:31:25.962Z,98918.78
2023-02-01T02:34:14.300Z,98917.59
2023-02-01T02:37:09.069Z,98911.56
2023-02-01T02:39:39.537Z,98915.28
2023-02-01T02:42:40.454Z,98911.06
2023-02-01T02:45:32.207Z,98889.03
2023-02-01T02:48:26.163Z,98884.19
2023-02-01T02:51:21.002Z,98876.47
2023-02-01T02:54:25.119Z,98901.97
2023-02-01T02:57:12.990Z,98887.69
2023-02-01T03:00:02.482Z,98894.75
2023-02-01T03:02:49.581Z,98898.34
2023-02-01T03:08:26.498Z,98902.94
2023-02-01T03:11:05.338Z,98904.63
2023-02-01T03:13:47.248Z,98901.25
2023-02-01T03:16:35.727Z,98900.53
2023-02-01T03:19:08.043Z,98911.28
2023-02-01T03:21:42.622Z,98912.97
2023-02-01T03:24:34.008Z,98905.13
2023-02-01T03:27:19.740Z,98905.00
2023-02-01T03:29:50.440Z,98908.16
2023-02-01T03:32:18.463Z,98909.75
2023-02-01T03:34:45.874Z,98891.81
2023-02-01T03:37:15.221Z,98896.91
2023-02-01T03:39:48.673Z,98883.72
2023-02-01T03:42:27.596Z,98886.97
2023-02-01T03:45:06.548Z,98898.59
2023-02-01T03:47:38.626Z,98895.94
2023-02-01T03:50:11.727Z,98898.47
2023-02-01T03:52:45.414Z,98893.03
2023-02-01T03:55:17.471Z,98897.63
2023-02-01T03:57:54.970Z,98889.50
2023-02-01T04:00:26.610Z,98892.06
2023-02-01T04:02:55.560Z,98882.16
2023-02-01T04:05:23.002Z,98875.28
2023-02-01T04:07:58.220Z,98879.63
2023-02-01T04:10:25.568Z,98861.69
2023-02-01T04:12:52.391Z,98874.16
2023-02-01T04:15:19.251Z,98872.34
2023-02-01T04:17:45.936Z,98868.00
2023-02-01T04:20:12.678Z,98870.53
2023-02-01T04:22:39.291Z,98869.69
2023-02-01T04:25:06.863Z,98861.69
2023-02-01T04:27:33.429Z,98854.56
2023-02-01T04:30:00.014Z,98853.72
2023-02-01T04:32:26.607Z,98843.34
2023-02-01T04:34:54.321Z,98842.34
2023-02-01T04:37:20.965Z,98837.41
2023-02-01T04:39:47.561Z,98837.53
2023-02-01T04:42:14.140Z,98841.88
2023-02-01T04:44:42.820Z,98841.75
2023-02-01T04:47:10.376Z,98844.41
2023-02-01T04:49:37.004Z,98841.88
2023-02-01T04:52:03.829Z,98833.91
2023-02-01T04:54:30.389Z,98826.16
2023-02-01T04:56:57.056Z,98822.78
2023-02-01T04:59:23.710Z,98820.69
2023-02-01T05:01:50.281Z,98821.78
2023-02-01T05:04:19.546Z,98817.78
2023-02-01T05:06:46.956Z,98809.69
2023-02-01T05:09:13.551Z,98813.31
2023-02-01T05:11:59.146Z,98804.34
2023-02-01T05:14:25.804Z,98800.97
2023-02-01T05:16:52.359Z,98804.63
2023-02-01T05:19:18.986Z,98799.03
2023-02-01T05:21:45.625Z,98799.88
2023-02-01T05:24:14.711Z,98783.81
2023-02-01T05:26:42.134Z,98784.66
2023-02-01T05:29:10.157Z,98784.03
2023-02-01T05:31:37.369Z,98782.13
2023-02-01T05:34:05.098Z,98781.16
2023-02-01T05:36:32.527Z,98782.97
2023-02-01T05:38:59.125Z,98774.97
2023-02-01T05:41:25.808Z,98782.22
2023-02-01T05:43:52.561Z,98788.28
2023-02-01T05:46:19.245Z,98788.53
2023-02-01T05:48:45.966Z,98773.03
2023-02-01T05:51:13.578Z,98772.06
2023-02-01T05:53:40.195Z,98774.72
2023-02-01T05:56:07.346Z,98771.69
2023-02-01T05:58:34.181Z,98779.53
2023-02-01T06:01:01.525Z,98772.53
2023-02-01T06:03:28.484Z,98768.31
2023-02-01T06:05:55.289Z,98763.22
2023-02-01T06:08:22.244Z,98768.22
2023-02-01T06:10:48.815Z,98765.72
2023-02-01T06:13:15.427Z,98777.19
2023-02-01T06:15:43.419Z,98775.09
2023-02-01T06:18:10.175Z,98764.22
2023-02-01T06:20:36.813Z,98762.78
2023-02-01T06:23:03.407Z,98767.59
2023-02-01T06:25:30.328Z,98752.47
2023-02-01T06:28:00.701Z,98752.25
2023-02-01T06:30:27.707Z,98759.84
2023-02-01T06:32:54.701Z,98764.81
2023-02-01T06:35:21.583Z,98754.25
2023-02-01T06:37:48.331Z,98760.19
2023-02-01T06:40:15.027Z,98764.53
2023-02-01T06:42:41.610Z,98762.72
2023-02-01T06:45:08.836Z,98757.41
2023-02-01T06:47:35.428Z,98765.16
2023-02-01T06:50:02.197Z,98761.63
2023-02-01T06:52:28.766Z,98752.91
2023-02-01T06:54:55.393Z,98754.59
2023-02-01T06:57:22.210Z,98745.78
2023-02-01T06:59:48.749Z,98757.25
2023-02-01T07:02:15.479Z,98749.53
2023-02-01T07:04:42.269Z,98744.34
2023-02-01T07:07:08.905Z,98749.91
2023-02-01T07:09:35.594Z,98747.97
2023-02-01T07:12:02.153Z,98746.19
2023-02-01T07:14:28.763Z,98749.31
2023-02-01T07:16:55.336Z,98734.69
2023-02-01T07:19:21.942Z,98734.97
2023-02-01T07:21:48.587Z,98735.34
2023-02-01T07:24:15.658Z,98752.03
2023-02-01T07:26:42.409Z,98752.41
2023-02-01T07:29:09.085Z,98755.47
2023-02-01T07:31:36.265Z,98746.88
2023-02-01T07:34:03.588Z,98750.16
2023-02-01T07:36:30.283Z,98746.03
2023-02-01T07:38:58.120Z,98740.88
2023-02-01T07:41:24.705Z,98746.88
2023-02-01T07:43:54.253Z,98739.16
2023-02-01T07:46:21.423Z,98736.47
2023-02-01T07:48:48.057Z,98735.53
2023-02-01T07:51:17.232Z,98732.75
2023-02-01T07:53:45.299Z,98728.91
2023-02-01T07:56:20.893Z,98731.44
2023-02-01T07:58:56.954Z,98730.09
2023-02-01T08:01:27.057Z,98722.97
2023-02-01T08:04:00.318Z,98720.03
2023-02-01T08:06:28.009Z,98716.53
2023-02-01T08:08:55.411Z,98717.00
2023-02-01T08:11:23.269Z,98721.38
2023-02-01T08:13:50.620Z,98717.28
2023-02-01T08:16:19.640Z,98718.13
2023-02-01T08:18:46.652Z,98717.28
2023-02-01T08:21:39.241Z,98706.75
2023-02-01T08:24:10.741Z,98709.41
2023-02-01T08:26:37.558Z,98707.72
2023-02-01T08:29:07.044Z,98709.06
2023-02-01T08:31:33.901Z,98714.03
2023-02-01T08:34:04.555Z,98704.94
2023-02-01T08:36:31.887Z,98701.34
2023-02-01T08:38:58.904Z,98705.56
2023-02-01T08:41:28.392Z,98693.25
2023-02-01T08:43:55.328Z,98692.03
2023-02-01T08:46:23.867Z,98690.94
2023-02-01T08:48:50.927Z,98683.06
2023-02-01T08:51:19.550Z,98679.78
2023-02-01T08:53:46.461Z,98685.47
2023-02-01T08:56:14.725Z,98679.88
2023-02-01T08:58:41.924Z,98677.91
2023-02-01T09:01:14.246Z,98667.69
2023-02-01T09:03:41.723Z,98659.75
2023-02-01T09:06:13.925Z,98676.19
2023-02-01T09:08:41.376Z,98660.69
2023-02-01T09:11:12.296Z,98675.44
2023-02-01T09:13:38.943Z,98657.78
2023-02-01T09:16:06.002Z,98663.66
2023-02-01T09:18:32.802Z,98670.28
2023-02-01T09:20:59.423Z,98671.28
2023-02-01T09:23:26.091Z,98673.22
2023-02-01T09:25:53.129Z,98668.75
2023-02-01T09:28:20.149Z,98671.28
2023-02-01T09:30:47.086Z,98664.25
2023-02-01T09:33:13.747Z,98661.75
2023-02-01T09:35:40.330Z,98653.28
2023-02-01T09:38:06.969Z,98670.25
2023-02-01T09:40:36.492Z,98667.97
2023-02-01T09:43:22.125Z,98677.16
2023-02-01T09:46:07.685Z,98677.09
2023-02-01T09:48:40.431Z,98687.19
2023-02-01T09:51:17.205Z,98673.22
2023-02-01T09:53:48.163Z,98703.00
2023-02-01T09:56:25.955Z,98716.81
2023-02-01T09:59:05.193Z,98710.88
2023-02-01T10:01:32.626Z,98724.78
2023-02-01T10:04:06.353Z,98737.41
2023-02-01T10:06:45.148Z,98735.22
2023-02-01T10:09:21.237Z,98736.28
2023-02-01T10:12:23.420Z,98737.38
2023-02-01T10:15:28.605Z,98743.66
2023-02-01T10:18:15.521Z,98743.88
2023-02-01T10:21:14.555Z,98746.31
2023-02-01T10:24:03.562Z,98747.88
2023-02-01T10:26:43.763Z,98753.44
2023-02-01T10:29:19.454Z,98763.47
2023-02-01T10:31:46.323Z,98742.94
2023-02-01T10:34:27.023Z,98748.38
2023-02-01T10:36:55.543Z,98757.22
2023-02-01T10:39:22.945Z,98753.38
2023-02-01T10:41:50.236Z,98747.69
2023-02-01T10:44:23.458Z,98735.75
2023-02-01T10:46:51.322Z,98753.59
2023-02-01T10:49:30.802Z,98759.19
2023-02-01T10:52:08.499Z,98756.06
2023-02-01T10:54:41.335Z,98765.50
2023-02-01T10:57:32.914Z,98755.09
2023-02-01T11:00:19.538Z,98753.41
2023-02-01T11:02:46.237Z,98760.06
2023-02-01T11:05:13.321Z,98750.25
2023-02-01T11:07:46.867Z,98755.56
2023-02-01T11:10:38.149Z,98750.13
2023-02-01T11:13:06.222Z,98764.13
2023-02-01T11:15:32.863Z,98772.34
2023-02-01T11:18:16.909Z,98758.28
2023-02-01T11:20:44.840Z,98755.09
2023-02-01T11:23:21.020Z,98765.25
2023-02-01T11:26:11.473Z,98754.72
2023-02-01T11:28:41.580Z,98752.81
2023-02-01T11:31:14.004Z,98750.84
2023-02-01T11:33:54.897Z,98751.06
2023-02-01T11:36:31.008Z,98742.00
2023-02-01T11:39:15.783Z,98742.00
2023-02-01T11:41:44.237Z,98735.81
2023-02-01T11:44:31.409Z,98739.47
2023-02-01T11:47:30.049Z,98734.59
2023-02-01T11:50:01.618Z,98737.38
2023-02-01T11:53:03.421Z,98720.59
2023-02-01T11:55:43.830Z,98722.66
2023-02-01T11:58:21.966Z,98728.91
2023-02-01T12:01:07.116Z,98716.72
2023-02-01T12:03:51.799Z,98719.53
2023-02-01T12:06:37.914Z,98722.66
2023-02-01T12:09:29.374Z,98720.91
2023-02-01T12:12:09.721Z,98719.97
2023-02-01T12:14:42.016Z,98711.47
2023-02-01T12:17:39.498Z,98706.25
2023-02-01T12:20:08.831Z,98706.69
2023-02-01T12:23:07.800Z,98706.78
2023-02-01T12:25:37.966Z,98704.72
2023-02-01T12:28:16.411Z,98702.53
2023-02-01T12:31:06.334Z,98690.88
2023-02-01T12:33:43.914Z,98703.97
2023-02-01T12:36:10.439Z,98698.13
2023-02-01T12:38:49.500Z,98693.13
2023-02-01T12:41:58.021Z,98690.91
2023-02-01T12:44:27.793Z,98685.75
2023-02-01T12:47:00.622Z,98686.59
2023-02-01T12:49:41.834Z,98679.44
2023-02-01T12:52:16.296Z,98682.84
2023-02-01T12:54:45.811Z,98685.38
2023-02-01T12:57:18.152Z,98671.66
2023-02-01T13:00:18.323Z,98675.69
2023-02-01T13:02:56.369Z,98673.94
2023-02-01T13:05:45.047Z,98663.84
2023-02-01T13:08:18.350Z,98672.28
2023-02-01T13:10:57.321Z,98664.75
2023-02-01T13:13:33.223Z,98664.78
2023-02-01T13:16:17.394Z,98668.88
2023-02-01T13:18:50.150Z,98665.25
2023-02-01T13:21:26.524Z,98663.59
2023-02-01T13:23:54.415Z,98662.47
2023-02-01T13:26:21.100Z,98670.31
2023-02-01T13:28:50.575Z,98654.34
2023-02-01T13:31:48.029Z,98655.28
2023-02-01T13:34:27.693Z,98652.41
2023-02-01T13:37:01.127Z,98651.66
2023-02-01T13:39:49.179Z,98652.25
2023-02-01T13:42:24.786Z,98659.41
2023-02-01T13:45:05.257Z,98648.03
2023-02-01T13:47:41.058Z,98635.81
2023-02-01T13:50:36.188Z,98634.69
2023-02-01T13:53:18.319Z,98636.25
2023-02-01T13:55:47.010Z,98640.59
2023-02-01T13:58:19.923Z,98638.78
2023-02-01T14:00:48.831Z,98644.25
2023-02-01T14:03:18.993Z,98637.09
2023-02-01T14:05:47.631Z,98645.25
2023-02-01T14:08:22.204Z,98628.25
2023-02-01T14:10:51.802Z,98632.75
2023-02-01T14:13:33.484Z,98635.41
2023-02-01T14:16:03.017Z,98626.44
2023-02-01T14:18:35.794Z,98628.94
2023-02-01T14:21:38.254Z,98634.44
2023-02-01T14:24:04.948Z,98625.44
2023-02-01T14:27:12.761Z,98618.44
2023-02-01T14:29:42.494Z,98638.78
2023-02-01T14:32:19.291Z,98624.19
2023-02-01T14:34:48.599Z,98622.38
2023-02-01T14:37:17.953Z,98618.19
2023-02-01T14:39:47.440Z,98620.56
2023-02-01T14:42:23.153Z,98607.22
2023-02-01T14:44:59.228Z,98612.97
2023-02-01T14:47:31.916Z,98618.19
2023-02-01T14:50:11.247Z,98608.47
2023-02-01T14:52:45.657Z,98617.31
2023-02-01T14:55:38.389Z,98619.28
2023-02-01T14:58:19.266Z,98614.22
2023-02-01T15:00:56.153Z,98620.41
2023-02-01T15:03:33.967Z,98616.03
2023-02-01T15:06:06.907Z,98612.22
2023-02-01T15:08:40.695Z,98613.66
2023-02-01T15:11:14.860Z,98599.34
2023-02-01T15:13:41.686Z,98599.75
2023-02-01T15:16:15.329Z,98607.19
2023-02-01T15:18:42.491Z,98594.09
2023-02-01T15:21:30.584Z,98592.69
2023-02-01T15:24:14.279Z,98575.50
2023-02-01T15:26:41.188Z,98577.03
2023-02-01T15:29:12.409Z,98575.63
2023-02-01T15:31:43.702Z,98568.75
2023-02-01T15:34:11.044Z,98566.72
2023-02-01T15:36:38.602Z,98563.41
2023-02-01T15:39:21.185Z,98554.69
2023-02-01T15:41:53.234Z,98555.13
2023-02-01T15:44:28.989Z,98544.19
2023-02-01T15:46:56.423Z,98542.09
2023-02-01T15:49:30.975Z,98533.38
2023-02-01T15:52:00.554Z,98534.56
2023-02-01T15:54:32.003Z,98528.38
2023-02-01T15:57:04.386Z,98526.41
2023-02-01T15:59:38.464Z,98526.16
2023-02-01T16:02:05.134Z,98516.47
2023-02-01T16:04:31.926Z,98509.31
2023-02-01T16:07:02.306Z,98520.69
2023-02-01T16:09:54.934Z,98509.75
2023-02-01T16:12:31.334Z,98513.38
2023-02-01T16:14:58.641Z,98506.94
2023-02-01T16:17:25.181Z,98482.66
2023-02-01T16:19:52.092Z,98485.88
2023-02-01T16:22:19.013Z,98489.03
2023-02-01T16:24:45.848Z,98475.00
2023-02-01T16:27:12.694Z,98481.16
2023-02-01T16:29:40.823Z,98496.78
2023-02-01T16:32:20.382Z,98494.41
2023-02-01T16:34:47.683Z,98491.56
2023-02-01T16:37:17.831Z,98508.44
2023-02-01T16:39:44.457Z,98524.94
2023-02-01T16:42:15.810Z,98543.78
2023-02-01T16:44:42.976Z,98550.00
2023-02-01T16:47:17.898Z,98558.50
2023-02-01T16:49:45.460Z,98550.81
2023-02-01T16:52:24.563Z,98580.38
2023-02-01T16:54:51.243Z,98550.94
2023-02-01T16:57:20.658Z,98536.22
2023-02-01T16:59:48.035Z,98595.19
2023-02-01T17:02:18.473Z,98631.91
2023-02-01T17:04:46.272Z,98650.44
2023-02-01T17:07:19.965Z,98578.69
2023-02-01T17:09:48.798Z,98583.88
2023-02-01T17:12:28.584Z,98573.66
2023-02-01T17:14:57.676Z,98513.88
2023-02-01T17:17:38.451Z,98530.28
2023-02-01T17:20:08.130Z,98554.41
2023-02-01T17:22:35.594Z,98574.19
2023-02-01T17:25:03.177Z,98570.22
2023-02-01T17:27:31.365Z,98578.69
2023-02-01T17:29:59.069Z,98586.88
2023-02-01T17:32:27.105Z,98595.22
2023-02-01T17:34:57.126Z,98605.44
2023-02-01T17:37:27.249Z,98609.31
2023-02-01T17:39:57.410Z,98602.34
2023-02-01T17:42:27.528Z,98612.81
2023-02-01T17:45:01.543Z,98617.84
2023-02-01T17:47:29.389Z,98614.59
2023-02-01T17:49:57.140Z,98627.72
2023-02-01T17:52:26.757Z,98629.25
2023-02-01T17:54:54.530Z,98637.09
2023-02-01T17:57:22.957Z,98631.88
2023-02-01T17:59:50.368Z,98634.66
2023-02-01T18:02:24.418Z,98647.06
2023-02-01T18:04:52.977Z,98657.00
2023-02-01T18:07:20.556Z,98665.91
2023-02-01T18:09:48.197Z,98669.06
2023-02-01T18:12:25.970Z,98672.91
2023-02-01T18:14:53.802Z,98667.63
2023-02-01T18:17:21.421Z,98663.25
2023-02-01T18:19:49.255Z,98671.72
2023-02-01T18:22:19.552Z,98681.97
2023-02-01T18:24:47.154Z,98673.69
2023-02-01T18:27:14.551Z,98671.75
2023-02-01T18:29:42.079Z,98668.69
2023-02-01T18:32:12.239Z,98664.94
2023-02-01T18:34:39.341Z,98675.31
2023-02-01T18:37:05.910Z,98662.91
2023-02-01T18:39:32.577Z,98672.78
2023-02-01T18:41:59.219Z,98671.72
2023-02-01T18:44:25.818Z,98665.47
2023-02-01T18:46:52.625Z,98663.91
2023-02-01T18:49:19.745Z,98668.72
2023-02-01T18:51:47.008Z,98662.56
2023-02-01T18:54:13.722Z,98673.44
2023-02-01T18:56:40.345Z,98663.31
2023-02-01T18:59:07.157Z,98665.97
2023-02-01T19:01:33.795Z,98658.63
2023-02-01T19:04:04.146Z,98660.78
2023-02-01T19:06:39.356Z,98672.63
2023-02-01T19:09:05.969Z,98661.38
2023-02-01T19:11:32.552Z,98660.78
2023-02-01T19:13:59.143Z,98660.88
2023-02-01T19:16:25.784Z,98673.66
2023-02-01T19:18:52.935Z,98651.50
2023-02-01T19:21:19.630Z,98682.47
2023-02-01T19:23:46.351Z,98674.06
2023-02-01T19:26:14.735Z,98684.53
2023-02-01T19:28:41.976Z,98679.38
2023-02-01T19:31:09.498Z,98678.63
2023-02-01T19:33:36.363Z,98687.91
2023-02-01T19:36:05.938Z,98692.16
2023-02-01T19:38:33.681Z,98690.34
2023-02-01T19:41:00.569Z,98695.41
2023-02-01T19:43:27.768Z,98693.56
2023-02-01T19:45:54.970Z,98698.88
2023-02-01T19:48:21.672Z,98705.44
2023-02-01T19:50:48.391Z,98706.41
2023-02-01T19:53:14.933Z,98695.78
2023-02-01T19:55:50.803Z,98695.28
2023-02-01T19:58:17.434Z,98693.47
2023-02-01T20:00:43.151Z,98689.00
2023-02-01T20:03:10.042Z,98682.72
2023-02-01T20:05:36.835Z,98687.56
2023-02-01T20:08:03.932Z,98693.13
2023-02-01T20:10:30.667Z,98697.22
2023-02-01T20:12:57.245Z,98693.50
2023-02-01T20:15:27.028Z,98689.88
2023-02-01T20:17:53.882Z,98708.63
2023-02-01T20:20:20.506Z,98710.78
2023-02-01T20:22:47.113Z,98708.47
2023-02-01T20:25:13.844Z,98703.97
2023-02-01T20:27:41.321Z,98714.06
2023-02-01T20:30:09.494Z,98719.16
2023-02-01T20:32:36.178Z,98718.75
2023-02-01T20:35:02.784Z,98715.53
2023-02-01T20:37:29.415Z,98726.38
2023-02-01T20:39:56.138Z,98717.09
2023-02-01T20:42:22.721Z,98723.38
2023-02-01T20:44:49.336Z,98723.72
2023-02-01T20:47:16.125Z,98731.19
2023-02-01T20:49:42.735Z,98738.28
2023-02-01T20:52:09.380Z,98724.31
2023-02-01T20:54:35.982Z,98731.63
2023-02-01T20:57:02.766Z,98722.00
2023-02-01T20:59:29.385Z,98732.59
2023-02-01T21:01:55.993Z,98725.53
2023-02-01T21:04:29.889Z,98724.69
2023-02-01T21:06:57.976Z,98727.47
2023-02-01T21:09:25.641Z,98736.09
2023-02-01T21:11:53.133Z,98739.09
2023-02-01T21:14:20.287Z,98726.31
2023-02-01T21:16:47.787Z,98740.31
2023-02-01T21:19:14.371Z,98739.84
2023-02-01T21:21:42.286Z,98746.00
2023-02-01T21:24:09.377Z,98735.16
2023-02-01T21:26:42.386Z,98740.22
2023-02-01T21:29:15.636Z,98737.22
2023-02-01T21:31:43.053Z,98747.72
2023-02-01T21:34:10.282Z,98730.09
2023-02-01T21:36:37.012Z,98731.91
2023-02-01T21:39:06.127Z,98740.22
2023-02-01T21:41:52.506Z,98742.28
2023-02-01T21:44:19.554Z,98742.28
2023-02-01T21:46:46.816Z,98751.09
2023-02-01T21:49:13.658Z,98745.44
2023-02-01T21:51:40.923Z,98740.56
2023-02-01T21:54:09.182Z,98746.84
2023-02-01T21:56:37.187Z,98741.19
2023-02-01T21:59:04.391Z,98753.00
2023-02-01T22:01:31.325Z,98752.78
2023-02-01T22:03:57.973Z,98757.41
2023-02-01T22:06:36.440Z,98744.56
2023-02-01T22:09:04.062Z,98746.16
2023-02-01T22:11:31.383Z,98748.09
2023-02-01T22:13:58.392Z,98753.63
2023-02-01T22:16:25.166Z,98764.13
2023-02-01T22:18:53.045Z,98757.63
2023-02-01T22:21:20.601Z,98761.47
2023-02-01T22:23:59.136Z,98764.03
2023-02-01T22:26:27.318Z,98752.53
2023-02-01T22:28:54.906Z,98767.88
2023-02-01T22:31:22.733Z,98761.09
2023-02-01T22:33:50.433Z,98750.25
2023-02-01T22:36:17.764Z,98754.47
2023-02-01T22:38:45.764Z,98763.41
2023-02-01T22:41:12.874Z,98758.69
2023-02-01T22:43:40.411Z,98762.00
2023-02-01T22:46:12.107Z,98764.78
2023-02-01T22:48:40.770Z,98767.56
2023-02-01T22:51:11.422Z,98763.69
2023-02-01T22:53:37.983Z,98755.91
2023-02-01T22:56:06.605Z,98754.72
2023-02-01T22:58:37.057Z,98759.78
2023-02-01T23:01:16.119Z,98749.16
2023-02-01T23:03:42.765Z,98763.16
2023-02-01T23:06:09.742Z,98759.66
2023-02-01T23:08:39.255Z,98755.94
2023-02-01T23:11:08.474Z,98773.34
2023-02-01T23:13:35.921Z,98764.53
2023-02-01T23:16:10.770Z,98769.72
2023-02-01T23:18:37.939Z,98775.53
2023-02-01T23:21:17.723Z,98768.28
2023-02-01T23:24:04.793Z,98768.78
2023-02-01T23:26:32.266Z,98771.31
2023-02-01T23:28:59.797Z,98775.78
2023-02-01T23:31:32.654Z,98775.56
2023-02-01T23:34:01.264Z,98785.44
2023-02-01T23:36:29.170Z,98782.06
2023-02-01T23:38:56.470Z,98781.22
2023-02-01T23:41:24.443Z,98779.41
2023-02-01T23:44:00.613Z,98788.56
2023-02-01T23:46:37.350Z,98777.84
2023-02-01T23:49:06.991Z,98786.16
2023-02-01T23:51:34.350Z,98785.53
2023-02-01T23:54:01.427Z,98780.47
2023-02-01T23:56:33.227Z,98785.47
2023-02-01T23:59:04.596Z,98775.06
